sensor_id;sensor_type;location;lat;lon;timestamp;temperature;humidity
17092;DHT22;8661;45.700;4.880;2023-02-15T00:01:40;6.40;99.30
17092;DHT22;8661;45.700;4.880;2023-02-15T00:04:13;6.40;99.50
17092;DHT22;8661;45.700;4.880;2023-02-15T00:06:40;6.30;99.90
17092;DHT22;8661;45.700;4.880;2023-02-15T00:09:07;6.40;99.90
17092;DHT22;8661;45.700;4.880;2023-02-15T00:11:35;6.50;99.90
17092;DHT22;8661;45.700;4.880;2023-02-15T00:14:12;6.50;99.90
17092;DHT22;8661;45.700;4.880;2023-02-15T00:16:40;6.50;99.90
17092;DHT22;8661;45.700;4.880;2023-02-15T00:19:11;6.40;99.90
17092;DHT22;8661;45.700;4.880;2023-02-15T00:21:39;6.30;99.90
17092;DHT22;8661;45.700;4.880;2023-02-15T00:24:09;6.20;99.90
17092;DHT22;8661;45.700;4.880;2023-02-15T00:26:38;6.20;99.90
17092;DHT22;8661;45.700;4.880;2023-02-15T00:29:06;6.10;99.90
17092;DHT22;8661;45.700;4.880;2023-02-15T00:31:34;6.10;99.90
17092;DHT22;8661;45.700;4.880;2023-02-15T00:34:02;6.10;99.90
17092;DHT22;8661;45.700;4.880;2023-02-15T00:36:30;6.10;99.90
17092;DHT22;8661;45.700;4.880;2023-02-15T00:38:57;6.00;99.90
17092;DHT22;8661;45.700;4.880;2023-02-15T00:41:25;6.00;99.90
17092;DHT22;8661;45.700;4.880;2023-02-15T00:43:52;5.80;99.90
17092;DHT22;8661;45.700;4.880;2023-02-15T00:46:19;5.70;99.90
17092;DHT22;8661;45.700;4.880;2023-02-15T00:48:46;5.60;99.90
17092;DHT22;8661;45.700;4.880;2023-02-15T00:51:13;5.50;99.90
17092;DHT22;8661;45.700;4.880;2023-02-15T00:53:41;5.40;99.90
17092;DHT22;8661;45.700;4.880;2023-02-15T00:56:09;5.40;99.90
17092;DHT22;8661;45.700;4.880;2023-02-15T00:58:36;5.30;99.90
17092;DHT22;8661;45.700;4.880;2023-02-15T01:01:05;5.20;99.90
17092;DHT22;8661;45.700;4.880;2023-02-15T01:03:33;5.10;99.90
17092;DHT22;8661;45.700;4.880;2023-02-15T01:06:00;5.10;99.90
17092;DHT22;8661;45.700;4.880;2023-02-15T01:08:27;4.90;99.90
17092;DHT22;8661;45.700;4.880;2023-02-15T01:10:56;4.90;99.90
17092;DHT22;8661;45.700;4.880;2023-02-15T01:13:23;4.90;99.90
17092;DHT22;8661;45.700;4.880;2023-02-15T01:15:53;4.90;99.90
17092;DHT22;8661;45.700;4.880;2023-02-15T01:18:21;5.00;99.90
17092;DHT22;8661;45.700;4.880;2023-02-15T01:20:51;5.00;99.90
17092;DHT22;8661;45.700;4.880;2023-02-15T01:23:18;5.00;99.90
17092;DHT22;8661;45.700;4.880;2023-02-15T01:25:46;4.90;99.90
17092;DHT22;8661;45.700;4.880;2023-02-15T01:28:14;4.80;99.90
17092;DHT22;8661;45.700;4.880;2023-02-15T01:30:41;4.70;99.90
17092;DHT22;8661;45.700;4.880;2023-02-15T01:33:09;4.70;99.90
17092;DHT22;8661;45.700;4.880;2023-02-15T01:35:43;4.60;99.90
17092;DHT22;8661;45.700;4.880;2023-02-15T01:38:11;4.60;99.90
17092;DHT22;8661;45.700;4.880;2023-02-15T01:40:38;4.50;99.90
17092;DHT22;8661;45.700;4.880;2023-02-15T01:43:09;4.50;99.90
17092;DHT22;8661;45.700;4.880;2023-02-15T01:45:38;4.40;99.90
17092;DHT22;8661;45.700;4.880;2023-02-15T01:48:11;4.40;99.90
17092;DHT22;8661;45.700;4.880;2023-02-15T01:50:42;4.30;99.90
17092;DHT22;8661;45.700;4.880;2023-02-15T01:53:13;4.30;99.90
17092;DHT22;8661;45.700;4.880;2023-02-15T01:55:45;4.20;99.90
17092;DHT22;8661;45.700;4.880;2023-02-15T01:58:14;4.10;99.90
17092;DHT22;8661;45.700;4.880;2023-02-15T02:00:43;4.00;99.90
17092;DHT22;8661;45.700;4.880;2023-02-15T02:03:10;4.00;99.90
17092;DHT22;8661;45.700;4.880;2023-02-15T02:05:38;3.90;99.90
17092;DHT22;8661;45.700;4.880;2023-02-15T02:08:07;3.90;99.90
17092;DHT22;8661;45.700;4.880;2023-02-15T02:10:35;3.90;99.90
17092;DHT22;8661;45.700;4.880;2023-02-15T02:13:03;3.80;99.90
17092;DHT22;8661;45.700;4.880;2023-02-15T02:15:38;3.90;99.90
17092;DHT22;8661;45.700;4.880;2023-02-15T02:18:17;3.80;99.90
17092;DHT22;8661;45.700;4.880;2023-02-15T02:21:10;3.80;99.90
17092;DHT22;8661;45.700;4.880;2023-02-15T02:23:49;3.70;99.90
17092;DHT22;8661;45.700;4.880;2023-02-15T02:27:05;3.70;99.90
17092;DHT22;8661;45.700;4.880;2023-02-15T02:33:07;3.50;99.90
17092;DHT22;8661;45.700;4.880;2023-02-15T02:35:44;3.50;99.90
17092;DHT22;8661;45.700;4.880;2023-02-15T02:38:20;3.40;99.90
17092;DHT22;8661;45.700;4.880;2023-02-15T02:40:55;3.40;99.90
17092;DHT22;8661;45.700;4.880;2023-02-15T02:43:32;3.40;99.90
17092;DHT22;8661;45.700;4.880;2023-02-15T02:46:05;3.50;99.90
17092;DHT22;8661;45.700;4.880;2023-02-15T02:48:35;3.50;99.90
17092;DHT22;8661;45.700;4.880;2023-02-15T02:51:03;3.50;99.90
17092;DHT22;8661;45.700;4.880;2023-02-15T02:53:30;3.40;99.90
17092;DHT22;8661;45.700;4.880;2023-02-15T02:56:01;3.40;99.90
17092;DHT22;8661;45.700;4.880;2023-02-15T02:58:36;3.40;99.90
17092;DHT22;8661;45.700;4.880;2023-02-15T03:01:10;3.30;99.90
17092;DHT22;8661;45.700;4.880;2023-02-15T03:03:42;3.30;99.90
17092;DHT22;8661;45.700;4.880;2023-02-15T03:06:13;3.20;99.90
17092;DHT22;8661;45.700;4.880;2023-02-15T03:08:47;3.20;99.90
17092;DHT22;8661;45.700;4.880;2023-02-15T03:11:15;3.10;99.90
17092;DHT22;8661;45.700;4.880;2023-02-15T03:13:43;3.10;99.90
17092;DHT22;8661;45.700;4.880;2023-02-15T03:16:12;3.10;99.90
17092;DHT22;8661;45.700;4.880;2023-02-15T03:18:56;3.00;99.90
17092;DHT22;8661;45.700;4.880;2023-02-15T03:21:30;3.00;99.90
17092;DHT22;8661;45.700;4.880;2023-02-15T03:24:02;3.00;99.90
17092;DHT22;8661;45.700;4.880;2023-02-15T03:26:32;3.00;99.90
17092;DHT22;8661;45.700;4.880;2023-02-15T03:29:03;3.00;99.90
17092;DHT22;8661;45.700;4.880;2023-02-15T03:31:34;3.00;99.90
17092;DHT22;8661;45.700;4.880;2023-02-15T03:34:07;2.90;99.90
17092;DHT22;8661;45.700;4.880;2023-02-15T03:36:40;2.80;99.90
17092;DHT22;8661;45.700;4.880;2023-02-15T03:39:15;2.70;99.90
17092;DHT22;8661;45.700;4.880;2023-02-15T03:41:48;2.70;99.90
17092;DHT22;8661;45.700;4.880;2023-02-15T03:44:19;2.70;99.90
17092;DHT22;8661;45.700;4.880;2023-02-15T03:46:53;2.70;99.90
17092;DHT22;8661;45.700;4.880;2023-02-15T03:49:24;2.70;99.90
17092;DHT22;8661;45.700;4.880;2023-02-15T03:51:56;2.60;99.90
17092;DHT22;8661;45.700;4.880;2023-02-15T03:54:27;2.60;99.90
17092;DHT22;8661;45.700;4.880;2023-02-15T03:57:14;2.60;99.90
17092;DHT22;8661;45.700;4.880;2023-02-15T04:00:01;2.60;99.90
17092;DHT22;8661;45.700;4.880;2023-02-15T04:02:59;2.60;99.90
17092;DHT22;8661;45.700;4.880;2023-02-15T04:05:30;2.60;99.90
17092;DHT22;8661;45.700;4.880;2023-02-15T04:07:57;2.60;99.90
17092;DHT22;8661;45.700;4.880;2023-02-15T04:10:24;2.60;99.90
17092;DHT22;8661;45.700;4.880;2023-02-15T04:13:08;2.60;99.90
17092;DHT22;8661;45.700;4.880;2023-02-15T04:15:35;2.60;99.90
17092;DHT22;8661;45.700;4.880;2023-02-15T04:18:20;2.60;99.90
17092;DHT22;8661;45.700;4.880;2023-02-15T04:20:48;2.50;99.90
17092;DHT22;8661;45.700;4.880;2023-02-15T04:23:32;2.50;99.90
17092;DHT22;8661;45.700;4.880;2023-02-15T04:26:17;2.50;99.90
17092;DHT22;8661;45.700;4.880;2023-02-15T04:28:44;2.50;99.90
17092;DHT22;8661;45.700;4.880;2023-02-15T04:31:11;2.60;99.90
17092;DHT22;8661;45.700;4.880;2023-02-15T04:33:38;2.60;99.90
17092;DHT22;8661;45.700;4.880;2023-02-15T04:36:06;2.60;99.90
17092;DHT22;8661;45.700;4.880;2023-02-15T04:38:33;2.60;99.90
17092;DHT22;8661;45.700;4.880;2023-02-15T04:41:00;2.60;99.90
17092;DHT22;8661;45.700;4.880;2023-02-15T04:43:27;2.60;99.90
17092;DHT22;8661;45.700;4.880;2023-02-15T04:45:54;2.60;99.90
17092;DHT22;8661;45.700;4.880;2023-02-15T04:48:21;2.60;99.90
17092;DHT22;8661;45.700;4.880;2023-02-15T04:50:51;2.60;99.90
17092;DHT22;8661;45.700;4.880;2023-02-15T04:53:19;2.50;99.90
17092;DHT22;8661;45.700;4.880;2023-02-15T04:55:46;2.40;99.90
17092;DHT22;8661;45.700;4.880;2023-02-15T04:58:13;2.40;99.90
17092;DHT22;8661;45.700;4.880;2023-02-15T05:00:40;2.50;99.90
17092;DHT22;8661;45.700;4.880;2023-02-15T05:03:07;2.50;99.90
17092;DHT22;8661;45.700;4.880;2023-02-15T05:05:35;2.40;99.90
17092;DHT22;8661;45.700;4.880;2023-02-15T05:08:02;2.40;99.90
17092;DHT22;8661;45.700;4.880;2023-02-15T05:10:30;2.40;99.90
17092;DHT22;8661;45.700;4.880;2023-02-15T05:12:57;2.30;99.90
17092;DHT22;8661;45.700;4.880;2023-02-15T05:15:24;2.30;99.90
17092;DHT22;8661;45.700;4.880;2023-02-15T05:17:51;2.30;99.90
17092;DHT22;8661;45.700;4.880;2023-02-15T05:20:18;2.30;99.90
17092;DHT22;8661;45.700;4.880;2023-02-15T05:22:45;2.30;99.90
17092;DHT22;8661;45.700;4.880;2023-02-15T05:25:12;2.30;99.90
17092;DHT22;8661;45.700;4.880;2023-02-15T05:27:58;2.30;99.90
17092;DHT22;8661;45.700;4.880;2023-02-15T05:30:42;2.30;99.90
17092;DHT22;8661;45.700;4.880;2023-02-15T05:33:09;2.30;99.90
17092;DHT22;8661;45.700;4.880;2023-02-15T05:35:36;2.30;99.90
17092;DHT22;8661;45.700;4.880;2023-02-15T05:38:03;2.30;99.90
17092;DHT22;8661;45.700;4.880;2023-02-15T05:40:30;2.40;99.90
17092;DHT22;8661;45.700;4.880;2023-02-15T05:42:59;2.40;99.90
17092;DHT22;8661;45.700;4.880;2023-02-15T05:45:26;2.40;99.90
17092;DHT22;8661;45.700;4.880;2023-02-15T05:47:53;2.60;99.90
17092;DHT22;8661;45.700;4.880;2023-02-15T05:50:20;2.70;99.90
17092;DHT22;8661;45.700;4.880;2023-02-15T05:52:47;3.00;99.90
17092;DHT22;8661;45.700;4.880;2023-02-15T05:55:14;3.00;99.90
17092;DHT22;8661;45.700;4.880;2023-02-15T05:57:41;3.00;99.90
17092;DHT22;8661;45.700;4.880;2023-02-15T06:00:11;3.00;99.90
17092;DHT22;8661;45.700;4.880;2023-02-15T06:02:39;2.90;99.90
17092;DHT22;8661;45.700;4.880;2023-02-15T06:05:07;2.80;99.90
17092;DHT22;8661;45.700;4.880;2023-02-15T06:07:34;2.80;99.90
17092;DHT22;8661;45.700;4.880;2023-02-15T06:10:02;2.80;99.90
17092;DHT22;8661;45.700;4.880;2023-02-15T06:12:29;2.80;99.90
17092;DHT22;8661;45.700;4.880;2023-02-15T06:14:56;2.80;99.90
17092;DHT22;8661;45.700;4.880;2023-02-15T06:17:24;2.80;99.90
17092;DHT22;8661;45.700;4.880;2023-02-15T06:19:51;2.80;99.90
17092;DHT22;8661;45.700;4.880;2023-02-15T06:22:18;2.80;99.90
17092;DHT22;8661;45.700;4.880;2023-02-15T06:24:45;2.80;99.90
17092;DHT22;8661;45.700;4.880;2023-02-15T06:27:12;2.80;99.90
17092;DHT22;8661;45.700;4.880;2023-02-15T06:29:39;2.70;99.90
17092;DHT22;8661;45.700;4.880;2023-02-15T06:32:06;2.70;99.90
17092;DHT22;8661;45.700;4.880;2023-02-15T06:34:35;2.70;99.90
17092;DHT22;8661;45.700;4.880;2023-02-15T06:37:02;2.70;99.90
17092;DHT22;8661;45.700;4.880;2023-02-15T06:39:29;2.70;99.90
17092;DHT22;8661;45.700;4.880;2023-02-15T06:41:56;2.70;99.90
17092;DHT22;8661;45.700;4.880;2023-02-15T06:44:24;2.70;99.90
17092;DHT22;8661;45.700;4.880;2023-02-15T06:46:51;2.80;99.90
17092;DHT22;8661;45.700;4.880;2023-02-15T06:49:17;2.80;99.90
17092;DHT22;8661;45.700;4.880;2023-02-15T06:51:46;2.90;99.90
17092;DHT22;8661;45.700;4.880;2023-02-15T06:54:13;3.00;99.90
17092;DHT22;8661;45.700;4.880;2023-02-15T06:56:40;3.00;99.90
17092;DHT22;8661;45.700;4.880;2023-02-15T06:59:07;3.10;99.90
17092;DHT22;8661;45.700;4.880;2023-02-15T07:01:34;3.30;99.90
17092;DHT22;8661;45.700;4.880;2023-02-15T07:04:02;3.50;99.90
17092;DHT22;8661;45.700;4.880;2023-02-15T07:06:31;3.60;99.90
17092;DHT22;8661;45.700;4.880;2023-02-15T07:09:00;3.90;99.90
17092;DHT22;8661;45.700;4.880;2023-02-15T07:11:27;4.20;99.90
17092;DHT22;8661;45.700;4.880;2023-02-15T07:14:11;4.60;99.90
17092;DHT22;8661;45.700;4.880;2023-02-15T07:16:38;5.20;99.90
17092;DHT22;8661;45.700;4.880;2023-02-15T07:19:05;5.80;99.90
17092;DHT22;8661;45.700;4.880;2023-02-15T07:21:32;6.00;99.90
17092;DHT22;8661;45.700;4.880;2023-02-15T07:24:03;6.20;99.90
17092;DHT22;8661;45.700;4.880;2023-02-15T07:26:31;6.60;99.90
17092;DHT22;8661;45.700;4.880;2023-02-15T07:28:58;7.40;99.90
17092;DHT22;8661;45.700;4.880;2023-02-15T07:31:25;8.00;99.90
17092;DHT22;8661;45.700;4.880;2023-02-15T07:33:52;8.50;99.90
17092;DHT22;8661;45.700;4.880;2023-02-15T07:36:19;8.70;99.90
17092;DHT22;8661;45.700;4.880;2023-02-15T07:38:46;8.70;99.90
17092;DHT22;8661;45.700;4.880;2023-02-15T07:41:15;8.90;99.90
17092;DHT22;8661;45.700;4.880;2023-02-15T07:43:43;9.40;99.90
17092;DHT22;8661;45.700;4.880;2023-02-15T07:46:12;10.30;99.90
17092;DHT22;8661;45.700;4.880;2023-02-15T07:48:41;10.40;99.90
17092;DHT22;8661;45.700;4.880;2023-02-15T07:51:09;10.70;99.90
17092;DHT22;8661;45.700;4.880;2023-02-15T07:53:39;10.80;99.90
17092;DHT22;8661;45.700;4.880;2023-02-15T07:56:08;11.50;99.90
17092;DHT22;8661;45.700;4.880;2023-02-15T07:58:37;11.70;99.90
17092;DHT22;8661;45.700;4.880;2023-02-15T08:01:23;12.00;99.90
17092;DHT22;8661;45.700;4.880;2023-02-15T08:03:51;12.20;99.90
17092;DHT22;8661;45.700;4.880;2023-02-15T08:06:25;11.70;99.90
17092;DHT22;8661;45.700;4.880;2023-02-15T08:08:52;11.50;99.90
17092;DHT22;8661;45.700;4.880;2023-02-15T08:11:21;11.60;99.90
17092;DHT22;8661;45.700;4.880;2023-02-15T08:14:04;11.20;99.90
17092;DHT22;8661;45.700;4.880;2023-02-15T08:16:34;11.40;99.90
17092;DHT22;8661;45.700;4.880;2023-02-15T08:19:03;11.40;99.90
17092;DHT22;8661;45.700;4.880;2023-02-15T08:21:32;11.30;99.90
17092;DHT22;8661;45.700;4.880;2023-02-15T08:23:59;11.50;99.90
17092;DHT22;8661;45.700;4.880;2023-02-15T08:26:27;11.20;99.90
17092;DHT22;8661;45.700;4.880;2023-02-15T08:28:54;11.00;99.90
17092;DHT22;8661;45.700;4.880;2023-02-15T08:31:23;11.00;99.90
17092;DHT22;8661;45.700;4.880;2023-02-15T08:33:52;10.70;99.90
17092;DHT22;8661;45.700;4.880;2023-02-15T08:36:20;10.70;99.90
17092;DHT22;8661;45.700;4.880;2023-02-15T08:38:48;10.50;99.90
17092;DHT22;8661;45.700;4.880;2023-02-15T08:41:17;10.60;99.90
17092;DHT22;8661;45.700;4.880;2023-02-15T08:43:47;10.80;99.90
17092;DHT22;8661;45.700;4.880;2023-02-15T08:46:15;11.30;99.90
17092;DHT22;8661;45.700;4.880;2023-02-15T08:48:44;11.90;99.90
17092;DHT22;8661;45.700;4.880;2023-02-15T08:51:13;12.60;99.90
17092;DHT22;8661;45.700;4.880;2023-02-15T08:53:42;13.50;99.90
17092;DHT22;8661;45.700;4.880;2023-02-15T08:56:11;14.40;99.90
17092;DHT22;8661;45.700;4.880;2023-02-15T08:58:41;14.20;99.90
17092;DHT22;8661;45.700;4.880;2023-02-15T09:01:10;13.80;99.90
17092;DHT22;8661;45.700;4.880;2023-02-15T09:03:37;14.40;99.90
17092;DHT22;8661;45.700;4.880;2023-02-15T09:06:06;14.50;99.90
17092;DHT22;8661;45.700;4.880;2023-02-15T09:08:33;14.00;99.90
17092;DHT22;8661;45.700;4.880;2023-02-15T09:11:08;13.90;99.90
17092;DHT22;8661;45.700;4.880;2023-02-15T09:13:36;13.70;99.90
17092;DHT22;8661;45.700;4.880;2023-02-15T09:16:06;14.30;99.90
17092;DHT22;8661;45.700;4.880;2023-02-15T09:18:35;15.60;99.10
17092;DHT22;8661;45.700;4.880;2023-02-15T09:21:09;15.80;97.20
17092;DHT22;8661;45.700;4.880;2023-02-15T09:23:39;15.70;96.80
17092;DHT22;8661;45.700;4.880;2023-02-15T09:26:07;16.30;95.70
17092;DHT22;8661;45.700;4.880;2023-02-15T09:28:34;16.40;94.70
17092;DHT22;8661;45.700;4.880;2023-02-15T09:31:06;16.50;94.20
17092;DHT22;8661;45.700;4.880;2023-02-15T09:33:34;16.80;93.40
17092;DHT22;8661;45.700;4.880;2023-02-15T09:36:01;17.30;92.60
17092;DHT22;8661;45.700;4.880;2023-02-15T09:38:30;18.20;91.10
17092;DHT22;8661;45.700;4.880;2023-02-15T09:41:08;19.00;88.40
17092;DHT22;8661;45.700;4.880;2023-02-15T09:43:44;19.70;84.40
17092;DHT22;8661;45.700;4.880;2023-02-15T09:46:26;19.90;83.40
17092;DHT22;8661;45.700;4.880;2023-02-15T09:48:59;20.00;82.70
17092;DHT22;8661;45.700;4.880;2023-02-15T09:54:43;20.70;77.80
17092;DHT22;8661;45.700;4.880;2023-02-15T09:57:18;21.20;76.50
17092;DHT22;8661;45.700;4.880;2023-02-15T09:59:57;20.90;76.60
17092;DHT22;8661;45.700;4.880;2023-02-15T10:02:36;21.10;76.20
17092;DHT22;8661;45.700;4.880;2023-02-15T10:05:14;21.40;74.80
17092;DHT22;8661;45.700;4.880;2023-02-15T10:28:20;21.70;69.40
17092;DHT22;8661;45.700;4.880;2023-02-15T10:30:51;22.20;68.30
17092;DHT22;8661;45.700;4.880;2023-02-15T10:33:32;22.60;68.60
17092;DHT22;8661;45.700;4.880;2023-02-15T10:36:10;22.60;67.60
17092;DHT22;8661;45.700;4.880;2023-02-15T10:39:06;22.30;68.30
17092;DHT22;8661;45.700;4.880;2023-02-15T10:52:02;22.20;68.80
17092;DHT22;8661;45.700;4.880;2023-02-15T10:57:38;22.00;68.40
17092;DHT22;8661;45.700;4.880;2023-02-15T11:00:15;22.10;68.90
17092;DHT22;8661;45.700;4.880;2023-02-15T11:03:03;22.60;67.80
17092;DHT22;8661;45.700;4.880;2023-02-15T11:05:41;23.20;65.30
17092;DHT22;8661;45.700;4.880;2023-02-15T11:08:16;23.20;64.50
17092;DHT22;8661;45.700;4.880;2023-02-15T11:10:47;22.90;66.10
17092;DHT22;8661;45.700;4.880;2023-02-15T11:13:18;22.90;65.80
17092;DHT22;8661;45.700;4.880;2023-02-15T11:15:51;23.30;65.00
17092;DHT22;8661;45.700;4.880;2023-02-15T11:18:23;23.50;63.50
17092;DHT22;8661;45.700;4.880;2023-02-15T11:20:55;23.40;63.30
17092;DHT22;8661;45.700;4.880;2023-02-15T11:23:29;23.40;63.30
17092;DHT22;8661;45.700;4.880;2023-02-15T11:26:15;23.10;63.80
17092;DHT22;8661;45.700;4.880;2023-02-15T11:28:47;23.00;64.00
17092;DHT22;8661;45.700;4.880;2023-02-15T11:31:18;22.80;64.50
17092;DHT22;8661;45.700;4.880;2023-02-15T11:33:49;22.60;64.20
17092;DHT22;8661;45.700;4.880;2023-02-15T11:36:20;22.80;65.10
17092;DHT22;8661;45.700;4.880;2023-02-15T11:38:50;23.70;62.30
17092;DHT22;8661;45.700;4.880;2023-02-15T11:41:22;24.00;61.80
17092;DHT22;8661;45.700;4.880;2023-02-15T11:43:56;24.20;61.00
17092;DHT22;8661;45.700;4.880;2023-02-15T11:46:24;24.00;61.40
17092;DHT22;8661;45.700;4.880;2023-02-15T11:48:51;23.50;62.10
17092;DHT22;8661;45.700;4.880;2023-02-15T11:51:20;24.00;61.20
17092;DHT22;8661;45.700;4.880;2023-02-15T11:53:49;24.20;60.70
17092;DHT22;8661;45.700;4.880;2023-02-15T11:56:18;24.20;60.30
17092;DHT22;8661;45.700;4.880;2023-02-15T11:58:48;24.50;60.00
17092;DHT22;8661;45.700;4.880;2023-02-15T12:01:23;24.90;59.40
17092;DHT22;8661;45.700;4.880;2023-02-15T12:03:55;24.40;59.70
17092;DHT22;8661;45.700;4.880;2023-02-15T12:06:25;24.20;60.00
17092;DHT22;8661;45.700;4.880;2023-02-15T12:09:02;23.90;60.10
17092;DHT22;8661;45.700;4.880;2023-02-15T12:11:35;23.90;60.10
17092;DHT22;8661;45.700;4.880;2023-02-15T12:14:04;24.00;60.40
17092;DHT22;8661;45.700;4.880;2023-02-15T12:16:40;23.80;60.30
17092;DHT22;8661;45.700;4.880;2023-02-15T12:19:21;23.70;60.80
17092;DHT22;8661;45.700;4.880;2023-02-15T12:21:51;23.80;61.00
17092;DHT22;8661;45.700;4.880;2023-02-15T12:24:22;23.50;62.20
17092;DHT22;8661;45.700;4.880;2023-02-15T12:26:58;23.80;61.20
17092;DHT22;8661;45.700;4.880;2023-02-15T12:29:34;24.30;60.70
17092;DHT22;8661;45.700;4.880;2023-02-15T12:32:03;24.00;60.40
17092;DHT22;8661;45.700;4.880;2023-02-15T12:34:33;23.50;61.90
17092;DHT22;8661;45.700;4.880;2023-02-15T12:37:09;22.80;62.80
17092;DHT22;8661;45.700;4.880;2023-02-15T12:39:51;22.20;63.70
17092;DHT22;8661;45.700;4.880;2023-02-15T12:42:21;22.10;63.70
17092;DHT22;8661;45.700;4.880;2023-02-15T12:44:56;21.90;64.20
17092;DHT22;8661;45.700;4.880;2023-02-15T12:47:23;21.60;64.70
17092;DHT22;8661;45.700;4.880;2023-02-15T12:50:07;21.30;65.90
17092;DHT22;8661;45.700;4.880;2023-02-15T12:52:37;20.70;66.10
17092;DHT22;8661;45.700;4.880;2023-02-15T12:55:19;20.40;67.20
17092;DHT22;8661;45.700;4.880;2023-02-15T12:57:47;20.70;67.70
17092;DHT22;8661;45.700;4.880;2023-02-15T13:00:27;21.00;67.30
17092;DHT22;8661;45.700;4.880;2023-02-15T13:02:57;21.70;67.20
17092;DHT22;8661;45.700;4.880;2023-02-15T13:05:28;22.50;66.10
17092;DHT22;8661;45.700;4.880;2023-02-15T13:07:58;22.90;64.20
17092;DHT22;8661;45.700;4.880;2023-02-15T13:10:29;22.60;63.80
17092;DHT22;8661;45.700;4.880;2023-02-15T13:12:58;21.60;65.10
17092;DHT22;8661;45.700;4.880;2023-02-15T13:15:33;21.10;65.70
17092;DHT22;8661;45.700;4.880;2023-02-15T13:18:02;21.00;66.10
17092;DHT22;8661;45.700;4.880;2023-02-15T13:20:30;21.10;66.50
17092;DHT22;8661;45.700;4.880;2023-02-15T13:23:01;21.10;66.00
17092;DHT22;8661;45.700;4.880;2023-02-15T13:25:37;20.80;66.30
17092;DHT22;8661;45.700;4.880;2023-02-15T13:28:11;20.30;67.70
17092;DHT22;8661;45.700;4.880;2023-02-15T13:30:44;20.20;68.70
17092;DHT22;8661;45.700;4.880;2023-02-15T13:33:20;20.50;68.10
17092;DHT22;8661;45.700;4.880;2023-02-15T13:36:01;21.10;67.80
17092;DHT22;8661;45.700;4.880;2023-02-15T13:38:46;21.70;65.80
17092;DHT22;8661;45.700;4.880;2023-02-15T13:41:17;21.90;64.50
17092;DHT22;8661;45.700;4.880;2023-02-15T13:43:52;22.20;63.70
17092;DHT22;8661;45.700;4.880;2023-02-15T13:46:34;22.00;63.70
17092;DHT22;8661;45.700;4.880;2023-02-15T13:49:17;21.90;63.30
17092;DHT22;8661;45.700;4.880;2023-02-15T13:51:55;22.10;64.30
17092;DHT22;8661;45.700;4.880;2023-02-15T13:54:36;22.40;62.80
17092;DHT22;8661;45.700;4.880;2023-02-15T13:57:26;22.20;62.50
17092;DHT22;8661;45.700;4.880;2023-02-15T14:00:04;21.90;63.90
17092;DHT22;8661;45.700;4.880;2023-02-15T14:03:00;21.70;64.10
17092;DHT22;8661;45.700;4.880;2023-02-15T14:05:50;21.30;65.20
17092;DHT22;8661;45.700;4.880;2023-02-15T14:08:32;21.30;66.00
17092;DHT22;8661;45.700;4.880;2023-02-15T14:11:07;21.40;65.50
17092;DHT22;8661;45.700;4.880;2023-02-15T14:13:58;21.40;65.30
17092;DHT22;8661;45.700;4.880;2023-02-15T14:16:36;21.30;66.10
17092;DHT22;8661;45.700;4.880;2023-02-15T14:19:16;21.20;65.10
17092;DHT22;8661;45.700;4.880;2023-02-15T14:21:48;21.30;65.30
17092;DHT22;8661;45.700;4.880;2023-02-15T14:24:27;21.30;65.30
17092;DHT22;8661;45.700;4.880;2023-02-15T14:27:04;21.30;64.90
17092;DHT22;8661;45.700;4.880;2023-02-15T14:29:48;21.20;65.20
17092;DHT22;8661;45.700;4.880;2023-02-15T14:32:24;21.60;65.20
17092;DHT22;8661;45.700;4.880;2023-02-15T14:34:54;21.70;64.80
17092;DHT22;8661;45.700;4.880;2023-02-15T14:37:31;21.70;64.00
17092;DHT22;8661;45.700;4.880;2023-02-15T14:40:03;22.00;63.10
17092;DHT22;8661;45.700;4.880;2023-02-15T14:42:53;22.00;62.90
17092;DHT22;8661;45.700;4.880;2023-02-15T14:45:28;22.30;62.40
17092;DHT22;8661;45.700;4.880;2023-02-15T14:48:03;22.20;62.00
17092;DHT22;8661;45.700;4.880;2023-02-15T14:50:40;22.60;61.40
17092;DHT22;8661;45.700;4.880;2023-02-15T14:53:33;22.40;61.80
17092;DHT22;8661;45.700;4.880;2023-02-15T14:56:22;22.40;61.20
17092;DHT22;8661;45.700;4.880;2023-02-15T14:59:16;22.20;60.90
17092;DHT22;8661;45.700;4.880;2023-02-15T15:01:55;22.00;59.90
17092;DHT22;8661;45.700;4.880;2023-02-15T15:04:27;21.60;61.10
17092;DHT22;8661;45.700;4.880;2023-02-15T15:07:03;21.20;61.90
17092;DHT22;8661;45.700;4.880;2023-02-15T15:09:35;21.10;61.90
17092;DHT22;8661;45.700;4.880;2023-02-15T15:12:37;20.90;62.40
17092;DHT22;8661;45.700;4.880;2023-02-15T15:15:05;20.50;62.10
17092;DHT22;8661;45.700;4.880;2023-02-15T15:17:54;20.60;63.10
17092;DHT22;8661;45.700;4.880;2023-02-15T15:20:43;20.40;62.40
17092;DHT22;8661;45.700;4.880;2023-02-15T15:23:36;20.40;63.20
17092;DHT22;8661;45.700;4.880;2023-02-15T15:26:23;20.20;63.10
17092;DHT22;8661;45.700;4.880;2023-02-15T15:29:00;20.30;63.20
17092;DHT22;8661;45.700;4.880;2023-02-15T15:31:38;20.10;63.70
17092;DHT22;8661;45.700;4.880;2023-02-15T15:37:30;19.60;64.50
17092;DHT22;8661;45.700;4.880;2023-02-15T15:40:29;19.70;64.90
17092;DHT22;8661;45.700;4.880;2023-02-15T15:43:32;19.60;65.30
17092;DHT22;8661;45.700;4.880;2023-02-15T15:46:32;19.40;65.70
17092;DHT22;8661;45.700;4.880;2023-02-15T15:49:05;19.10;65.40
17092;DHT22;8661;45.700;4.880;2023-02-15T15:51:39;18.80;66.50
17092;DHT22;8661;45.700;4.880;2023-02-15T15:54:14;18.70;66.60
17092;DHT22;8661;45.700;4.880;2023-02-15T15:56:44;18.70;66.20
17092;DHT22;8661;45.700;4.880;2023-02-15T15:59:16;18.60;67.00
17092;DHT22;8661;45.700;4.880;2023-02-15T16:01:45;18.70;67.50
17092;DHT22;8661;45.700;4.880;2023-02-15T16:04:14;18.70;67.60
17092;DHT22;8661;45.700;4.880;2023-02-15T16:06:49;18.60;67.90
17092;DHT22;8661;45.700;4.880;2023-02-15T16:09:18;18.60;67.70
17092;DHT22;8661;45.700;4.880;2023-02-15T16:11:48;18.40;67.60
17092;DHT22;8661;45.700;4.880;2023-02-15T16:14:22;18.10;68.90
17092;DHT22;8661;45.700;4.880;2023-02-15T16:16:54;18.00;69.40
17092;DHT22;8661;45.700;4.880;2023-02-15T16:19:26;17.80;69.40
17092;DHT22;8661;45.700;4.880;2023-02-15T16:21:57;17.70;70.10
17092;DHT22;8661;45.700;4.880;2023-02-15T16:24:35;17.50;70.60
17092;DHT22;8661;45.700;4.880;2023-02-15T16:27:11;17.20;72.30
17092;DHT22;8661;45.700;4.880;2023-02-15T16:29:42;16.70;74.10
17092;DHT22;8661;45.700;4.880;2023-02-15T16:32:17;16.30;75.70
17092;DHT22;8661;45.700;4.880;2023-02-15T16:34:52;15.90;77.10
17092;DHT22;8661;45.700;4.880;2023-02-15T16:37:23;15.50;78.50
17092;DHT22;8661;45.700;4.880;2023-02-15T16:39:53;15.20;79.70
17092;DHT22;8661;45.700;4.880;2023-02-15T16:42:20;15.00;80.30
17092;DHT22;8661;45.700;4.880;2023-02-15T16:44:50;14.90;80.40
17092;DHT22;8661;45.700;4.880;2023-02-15T16:47:20;14.70;81.00
17092;DHT22;8661;45.700;4.880;2023-02-15T16:49:49;14.60;82.40
17092;DHT22;8661;45.700;4.880;2023-02-15T16:52:22;14.40;82.30
17092;DHT22;8661;45.700;4.880;2023-02-15T16:54:54;14.20;83.20
17092;DHT22;8661;45.700;4.880;2023-02-15T16:57:23;14.00;84.00
17092;DHT22;8661;45.700;4.880;2023-02-15T16:59:53;13.80;84.40
17092;DHT22;8661;45.700;4.880;2023-02-15T17:02:24;13.60;84.80
17092;DHT22;8661;45.700;4.880;2023-02-15T17:05:05;13.50;85.40
17092;DHT22;8661;45.700;4.880;2023-02-15T17:07:38;13.30;86.00
17092;DHT22;8661;45.700;4.880;2023-02-15T17:10:26;13.10;86.60